createdAt,value
2018-08-27T00:01:19.888Z,54.60
2018-08-27T00:03:50.896Z,54.60
2018-08-27T00:06:22.078Z,54.30
2018-08-27T00:08:53.933Z,54.30
2018-08-27T00:11:26.016Z,54.30
2018-08-27T00:13:58.076Z,54.60
2018-08-27T00:16:30.004Z,54.50
2018-08-27T00:19:00.973Z,54.40
2018-08-27T00:21:31.897Z,54.40
2018-08-27T00:24:02.208Z,54.40
2018-08-27T00:26:32.431Z,54.60
2018-08-27T00:29:15.961Z,54.80
2018-08-27T00:31:49.451Z,55.00
2018-08-27T00:34:19.728Z,54.90
2018-08-27T00:36:50.003Z,54.90
2018-08-27T00:39:20.232Z,55.30
2018-08-27T00:41:50.886Z,55.30
2018-08-27T00:44:21.138Z,55.50
2018-08-27T00:46:52.335Z,55.40
2018-08-27T00:49:22.833Z,55.50
2018-08-27T00:51:54.462Z,55.40
2018-08-27T00:54:24.994Z,55.30
2018-08-27T00:56:56.375Z,55.50
2018-08-27T00:59:27.550Z,55.70
2018-08-27T01:01:58.386Z,56.20
2018-08-27T01:04:29.593Z,55.50
2018-08-27T01:07:00.046Z,55.50
2018-08-27T01:09:31.050Z,55.60
2018-08-27T01:12:01.499Z,56.30
2018-08-27T01:14:32.649Z,55.50
2018-08-27T01:17:03.550Z,55.70
2018-08-27T01:19:36.982Z,55.70
2018-08-27T01:22:08.295Z,55.70
2018-08-27T01:24:39.475Z,55.90
2018-08-27T01:27:09.785Z,55.70
2018-08-27T01:29:40.070Z,55.60
2018-08-27T01:32:30.698Z,55.60
2018-08-27T01:35:01.182Z,55.80
2018-08-27T01:37:31.555Z,56.10
2018-08-27T01:40:02.118Z,56.20
2018-08-27T01:42:32.381Z,56.00
2018-08-27T01:45:05.161Z,56.10
2018-08-27T01:47:36.048Z,56.10
2018-08-27T01:50:06.425Z,56.40
2018-08-27T01:52:37.514Z,56.30
2018-08-27T01:55:08.645Z,56.40
2018-08-27T01:57:38.986Z,56.60
2018-08-27T02:00:10.913Z,56.40
2018-08-27T02:02:42.070Z,56.50
2018-08-27T02:05:13.410Z,56.40
2018-08-27T02:07:43.677Z,56.20
2018-08-27T02:10:14.049Z,56.30
2018-08-27T02:12:44.314Z,56.30
2018-08-27T02:15:14.551Z,56.40
2018-08-27T02:17:46.184Z,56.80
2018-08-27T02:20:16.778Z,56.80
2018-08-27T02:22:47.248Z,56.90
2018-08-27T02:25:17.585Z,57.20
2018-08-27T02:27:48.022Z,56.60
2018-08-27T02:30:18.655Z,56.40
2018-08-27T02:32:48.935Z,56.30
2018-08-27T02:35:19.190Z,56.40
2018-08-27T02:37:49.490Z,56.20
2018-08-27T02:40:20.193Z,56.00
2018-08-27T02:42:51.502Z,55.80
2018-08-27T02:45:21.782Z,55.50
2018-08-27T02:47:52.391Z,55.40
2018-08-27T02:50:23.059Z,55.60
2018-08-27T02:52:53.482Z,56.10
2018-08-27T02:55:23.977Z,55.70
2018-08-27T02:57:54.621Z,56.20
2018-08-27T03:00:25.094Z,56.30
2018-08-27T03:02:55.389Z,56.50
2018-08-27T03:05:26.094Z,56.40
2018-08-27T03:07:56.365Z,56.40
2018-08-27T03:10:26.615Z,56.40
2018-08-27T03:12:57.050Z,56.40
2018-08-27T03:15:27.297Z,56.40
2018-08-27T03:17:58.001Z,56.50
2018-08-27T03:20:28.275Z,56.10
2018-08-27T03:22:58.906Z,55.90
2018-08-27T03:25:29.309Z,55.90
2018-08-27T03:28:00.171Z,56.10
2018-08-27T03:30:30.418Z,56.30
2018-08-27T03:33:00.852Z,56.60
2018-08-27T03:35:31.097Z,56.80
2018-08-27T03:38:01.381Z,57.00
2018-08-27T03:40:31.651Z,57.00
2018-08-27T03:43:01.942Z,57.00
2018-08-27T03:45:32.184Z,56.80
2018-08-27T03:48:02.966Z,57.00
2018-08-27T03:50:33.220Z,57.10
2018-08-27T03:53:03.521Z,57.00
2018-08-27T03:55:33.771Z,56.50
2018-08-27T03:58:04.540Z,56.30
2018-08-27T04:00:34.784Z,56.20
2018-08-27T04:03:05.421Z,56.30
2018-08-27T04:05:35.706Z,56.60
2018-08-27T04:08:06.220Z,56.50
2018-08-27T04:10:36.495Z,57.00
2018-08-27T04:13:06.746Z,56.90
2018-08-27T04:15:36.998Z,56.90
2018-08-27T04:18:07.345Z,57.00
2018-08-27T04:20:37.576Z,57.10
2018-08-27T04:23:08.091Z,57.00
2018-08-27T04:25:38.318Z,56.70
2018-08-27T04:28:08.656Z,56.70
2018-08-27T04:30:38.914Z,56.60
2018-08-27T04:33:09.638Z,56.20
2018-08-27T04:35:39.889Z,56.30
2018-08-27T04:38:10.281Z,56.40
2018-08-27T04:40:40.530Z,56.10
2018-08-27T04:43:10.790Z,56.10
2018-08-27T04:45:41.038Z,56.10
2018-08-27T04:48:11.442Z,55.90
2018-08-27T04:50:41.702Z,56.20
2018-08-27T04:53:12.036Z,56.30
2018-08-27T04:55:42.298Z,56.20
2018-08-27T04:58:12.577Z,55.80
2018-08-27T05:00:43.175Z,55.80
2018-08-27T05:03:13.557Z,56.10
2018-08-27T05:05:43.852Z,56.20
2018-08-27T05:08:14.162Z,56.50
2018-08-27T05:10:44.539Z,56.50
2018-08-27T05:13:14.923Z,56.30
2018-08-27T05:15:45.101Z,56.30
2018-08-27T05:18:15.429Z,56.40
2018-08-27T05:20:45.681Z,56.20
2018-08-27T05:23:15.982Z,55.80
2018-08-27T05:25:46.257Z,55.70
2018-08-27T05:28:16.549Z,55.40
2018-08-27T05:30:46.872Z,55.20
2018-08-27T05:33:17.122Z,55.40
2018-08-27T05:35:47.418Z,55.20
2018-08-27T05:38:18.169Z,54.80
2018-08-27T05:40:48.307Z,54.80
2018-08-27T05:43:18.611Z,54.30
2018-08-27T05:45:48.887Z,53.60
2018-08-27T05:48:19.269Z,53.20
2018-08-27T05:50:49.499Z,52.80
2018-08-27T05:53:19.951Z,53.20
2018-08-27T05:55:50.200Z,53.40
2018-08-27T05:58:20.474Z,53.40
2018-08-27T06:00:51.371Z,53.60
2018-08-27T06:03:21.614Z,52.90
2018-08-27T06:05:52.030Z,53.10
2018-08-27T06:08:22.285Z,52.90
2018-08-27T06:10:52.999Z,52.90
2018-08-27T06:13:23.263Z,52.80
2018-08-27T06:15:53.645Z,52.40
2018-08-27T06:18:23.961Z,52.30
2018-08-27T06:20:54.293Z,51.90
2018-08-27T06:23:24.509Z,51.40
2018-08-27T06:25:55.285Z,50.60
2018-08-27T06:28:25.506Z,50.60
2018-08-27T06:30:55.958Z,51.50
2018-08-27T06:33:26.186Z,50.70
2018-08-27T06:35:57.081Z,50.00
2018-08-27T06:38:27.333Z,50.80
2018-08-27T06:40:58.034Z,51.00
2018-08-27T06:43:28.546Z,50.80
2018-08-27T06:45:59.020Z,51.20
2018-08-27T06:48:29.378Z,50.80
2018-08-27T06:50:59.866Z,50.40
2018-08-27T06:53:30.115Z,50.50
2018-08-27T06:56:00.397Z,50.60
2018-08-27T06:58:30.670Z,50.20
2018-08-27T07:01:00.995Z,49.90
2018-08-27T07:03:31.338Z,49.10
2018-08-27T07:06:01.803Z,48.60
2018-08-27T07:08:32.074Z,48.70
2018-08-27T07:11:02.350Z,48.80
2018-08-27T07:13:33.017Z,48.20
2018-08-27T07:16:03.385Z,48.10
2018-08-27T07:18:33.974Z,47.40
2018-08-27T07:21:04.226Z,47.40
2018-08-27T07:23:34.494Z,45.90
2018-08-27T07:26:04.747Z,44.90
2018-08-27T07:28:35.008Z,44.10
2018-08-27T07:31:05.256Z,43.80
2018-08-27T07:33:35.919Z,43.40
2018-08-27T07:36:06.759Z,43.60
2018-08-27T07:38:36.971Z,42.80
2018-08-27T07:41:07.244Z,42.70
2018-08-27T07:43:37.559Z,42.50
2018-08-27T07:46:08.191Z,42.80
2018-08-27T07:48:38.483Z,42.40
2018-08-27T07:51:09.268Z,42.10
2018-08-27T07:53:39.837Z,41.80
2018-08-27T07:56:10.133Z,41.90
2018-08-27T07:58:40.466Z,41.20
2018-08-27T08:01:10.929Z,40.50
2018-08-27T08:03:41.338Z,40.30
2018-08-27T08:06:11.619Z,39.50
2018-08-27T08:08:41.896Z,39.30
2018-08-27T08:11:12.175Z,38.90
2018-08-27T08:13:42.441Z,38.60
2018-08-27T08:16:12.756Z,38.40
2018-08-27T08:18:43.029Z,38.60
2018-08-27T08:21:13.354Z,38.50
2018-08-27T08:23:45.834Z,38.30
2018-08-27T08:26:16.142Z,37.00
2018-08-27T08:28:46.531Z,37.10
2018-08-27T08:31:16.774Z,37.00
2018-08-27T08:33:47.378Z,36.80
2018-08-27T08:36:17.656Z,37.00
2018-08-27T08:38:47.961Z,38.50
2018-08-27T08:41:18.277Z,37.60
2018-08-27T08:43:48.679Z,35.20
2018-08-27T08:46:19.172Z,34.30
2018-08-27T08:48:49.535Z,32.20
2018-08-27T08:51:19.841Z,31.80
2018-08-27T08:53:50.102Z,30.50
2018-08-27T08:56:20.487Z,30.90
2018-08-27T08:58:50.775Z,29.30
2018-08-27T09:01:21.107Z,29.20
2018-08-27T09:03:51.602Z,28.40
2018-08-27T09:06:21.897Z,25.90
2018-08-27T09:08:52.508Z,26.30
2018-08-27T09:11:22.770Z,25.50
2018-08-27T09:13:53.104Z,25.80
2018-08-27T09:16:23.881Z,25.80
2018-08-27T09:18:54.332Z,25.70
2018-08-27T09:21:24.632Z,25.70
2018-08-27T09:23:55.016Z,27.70
2018-08-27T09:26:25.458Z,27.10
2018-08-27T09:28:56.039Z,25.90
2018-08-27T09:31:26.430Z,26.40
2018-08-27T09:33:56.867Z,24.60
2018-08-27T09:36:27.122Z,21.90
2018-08-27T09:38:57.638Z,27.10
2018-08-27T09:41:27.907Z,25.50
2018-08-27T09:43:58.294Z,25.40
2018-08-27T09:46:28.550Z,24.10
2018-08-27T09:48:59.042Z,23.50
2018-08-27T09:51:29.298Z,19.20
2018-08-27T09:53:59.779Z,20.50
2018-08-27T09:56:30.047Z,21.70
2018-08-27T09:59:00.387Z,24.20
2018-08-27T10:01:35.891Z,21.90
2018-08-27T10:04:06.605Z,20.60
2018-08-27T10:06:36.896Z,19.00
2018-08-27T10:09:08.804Z,18.60
2018-08-27T10:11:39.407Z,19.00
2018-08-27T10:14:10.394Z,19.30
2018-08-27T10:16:40.653Z,19.20
2018-08-27T10:19:10.975Z,18.80
2018-08-27T10:21:41.373Z,18.80
2018-08-27T10:24:11.706Z,20.20
2018-08-27T10:26:42.033Z,19.30
2018-08-27T10:29:16.949Z,19.60
2018-08-27T10:31:47.238Z,19.30
2018-08-27T10:34:17.581Z,19.50
2018-08-27T10:36:47.885Z,19.40
2018-08-27T10:39:18.243Z,20.30
2018-08-27T10:41:48.594Z,19.80
2018-08-27T10:44:18.946Z,20.30
2018-08-27T10:46:49.301Z,20.40
2018-08-27T10:49:19.858Z,20.60
2018-08-27T10:51:50.192Z,21.20
2018-08-27T10:54:20.509Z,21.20
2018-08-27T10:56:50.788Z,23.20
2018-08-27T10:59:21.370Z,23.70
2018-08-27T11:01:51.755Z,25.30
2018-08-27T11:04:22.258Z,24.00
2018-08-27T11:06:52.967Z,25.20
2018-08-27T11:09:23.553Z,25.40
2018-08-27T11:11:53.964Z,24.00
2018-08-27T11:14:24.483Z,25.40
2018-08-27T11:16:54.942Z,24.70
2018-08-27T11:19:25.477Z,25.30
2018-08-27T11:21:55.973Z,24.10
2018-08-27T11:24:26.341Z,24.40
2018-08-27T11:26:56.824Z,23.90
2018-08-27T11:29:27.242Z,23.70
2018-08-27T11:31:57.999Z,23.00
2018-08-27T11:34:28.529Z,23.10
2018-08-27T11:36:58.915Z,24.10
2018-08-27T11:39:29.478Z,23.50
2018-08-27T11:41:59.945Z,25.20
2018-08-27T11:44:30.212Z,24.00
2018-08-27T11:47:00.633Z,24.00
2018-08-27T11:49:30.997Z,22.80
2018-08-27T11:52:01.506Z,22.90
2018-08-27T11:54:31.841Z,22.80
2018-08-27T11:57:02.210Z,21.40
2018-08-27T11:59:32.571Z,21.10
2018-08-27T12:02:04.453Z,21.40
2018-08-27T12:04:34.806Z,19.90
2018-08-27T12:07:05.294Z,19.50
2018-08-27T12:09:35.633Z,19.10
2018-08-27T12:12:06.257Z,19.50
2018-08-27T12:14:36.667Z,20.10
2018-08-27T12:17:07.090Z,19.80
2018-08-27T12:19:37.479Z,19.80
2018-08-27T12:22:07.967Z,20.90
2018-08-27T12:24:38.270Z,21.60
2018-08-27T12:27:08.642Z,22.30
2018-08-27T12:29:38.945Z,22.20
2018-08-27T12:32:09.559Z,22.10
2018-08-27T12:34:39.922Z,21.50
2018-08-27T12:37:10.298Z,21.80
2018-08-27T12:39:40.610Z,22.70
2018-08-27T12:42:10.976Z,23.10
2018-08-27T12:44:41.454Z,23.30
2018-08-27T12:47:11.720Z,23.90
2018-08-27T12:49:42.077Z,25.10
2018-08-27T12:52:12.403Z,25.90
2018-08-27T12:54:42.876Z,25.90
2018-08-27T12:57:13.231Z,26.90
2018-08-27T12:59:43.599Z,26.70
2018-08-27T13:02:13.847Z,28.30
2018-08-27T13:04:44.118Z,28.30
2018-08-27T13:07:14.372Z,29.40
2018-08-27T13:09:44.635Z,29.30
2018-08-27T13:12:14.894Z,29.50
2018-08-27T13:14:45.186Z,29.50
2018-08-27T13:17:15.457Z,30.30
2018-08-27T13:19:45.746Z,28.20
2018-08-27T13:22:16.417Z,28.80
2018-08-27T13:24:46.708Z,28.50
2018-08-27T13:27:16.961Z,27.40
2018-08-27T13:29:47.232Z,28.70
2018-08-27T13:32:17.516Z,28.40
2018-08-27T13:34:47.797Z,28.60
2018-08-27T13:37:19.253Z,28.70
2018-08-27T13:39:50.697Z,28.70
2018-08-27T13:42:21.264Z,28.10
2018-08-27T13:44:52.026Z,29.50
2018-08-27T13:47:22.317Z,28.70
2018-08-27T13:50:02.089Z,29.10
2018-08-27T13:52:36.142Z,28.10
2018-08-27T13:55:06.651Z,27.70
2018-08-27T13:57:37.374Z,26.40
2018-08-27T14:00:12.845Z,26.00
2018-08-27T14:02:43.105Z,24.80
2018-08-27T14:05:13.642Z,22.10
2018-08-27T14:07:43.914Z,21.20
2018-08-27T14:10:14.636Z,21.90
2018-08-27T14:12:44.969Z,23.40
2018-08-27T14:15:15.900Z,23.60
2018-08-27T14:17:46.083Z,24.30
2018-08-27T14:20:16.445Z,25.20
2018-08-27T14:22:49.360Z,26.30
2018-08-27T14:25:19.894Z,25.50
2018-08-27T14:27:50.198Z,24.00
2018-08-27T14:30:22.021Z,23.50
2018-08-27T14:32:53.089Z,24.00
2018-08-27T14:35:23.991Z,23.90
2018-08-27T14:37:54.418Z,24.50
2018-08-27T14:40:24.707Z,25.60
2018-08-27T14:42:55.058Z,26.60
2018-08-27T14:45:25.875Z,25.60
2018-08-27T14:47:56.492Z,26.10
2018-08-27T14:50:26.906Z,27.20
2018-08-27T14:52:57.238Z,27.60
2018-08-27T14:55:27.726Z,28.20
2018-08-27T14:57:58.160Z,28.70
2018-08-27T15:00:28.554Z,29.40
2018-08-27T15:02:58.935Z,30.30
2018-08-27T15:05:29.182Z,29.30
2018-08-27T15:07:59.929Z,29.10
2018-08-27T15:10:31.291Z,29.20
2018-08-27T15:13:01.841Z,29.00
2018-08-27T15:15:32.086Z,29.10
2018-08-27T15:18:02.361Z,28.00
2018-08-27T15:20:33.940Z,28.10
2018-08-27T15:23:04.427Z,27.20
2018-08-27T15:25:34.729Z,28.50
2018-08-27T15:28:06.240Z,28.00
2018-08-27T15:30:36.777Z,28.00
2018-08-27T15:33:07.776Z,28.40
2018-08-27T15:35:38.282Z,28.60
2018-08-27T15:38:09.715Z,29.50
2018-08-27T15:40:40.033Z,29.50
2018-08-27T15:43:10.599Z,28.20
2018-08-27T15:45:47.035Z,28.30
2018-08-27T15:48:17.369Z,28.40
2018-08-27T15:50:47.693Z,29.00
2018-08-27T15:53:18.063Z,30.00
2018-08-27T15:55:48.360Z,29.90
2018-08-27T15:58:18.651Z,30.90
2018-08-27T16:00:49.126Z,30.50
2018-08-27T16:03:19.402Z,30.00
2018-08-27T16:05:49.765Z,30.00
2018-08-27T16:08:20.071Z,29.70
2018-08-27T16:10:50.397Z,29.30
2018-08-27T16:13:20.699Z,29.20
2018-08-27T16:15:51.018Z,28.80
2018-08-27T16:18:21.997Z,28.90
2018-08-27T16:20:53.129Z,29.10
2018-08-27T16:23:23.925Z,30.10
2018-08-27T16:25:55.146Z,30.50
2018-08-27T16:28:25.649Z,31.50
2018-08-27T16:30:56.149Z,32.60
2018-08-27T16:33:26.549Z,33.60
2018-08-27T16:35:57.350Z,33.70
2018-08-27T16:38:27.771Z,34.30
2018-08-27T16:40:58.422Z,34.50
2018-08-27T16:43:28.733Z,34.70
2018-08-27T16:46:00.048Z,34.30
2018-08-27T16:48:30.331Z,34.90
2018-08-27T16:51:00.655Z,34.90
2018-08-27T16:53:30.906Z,35.60
2018-08-27T16:56:01.521Z,35.30
2018-08-27T16:58:31.832Z,35.30
2018-08-27T17:01:02.310Z,35.30
2018-08-27T17:03:32.685Z,35.70
2018-08-27T17:06:02.961Z,35.30
2018-08-27T17:08:33.214Z,34.00
2018-08-27T17:11:03.478Z,33.90
2018-08-27T17:13:33.778Z,33.50
2018-08-27T17:16:04.051Z,33.60
2018-08-27T17:18:34.306Z,33.60
2018-08-27T17:21:04.632Z,33.60
2018-08-27T17:23:34.886Z,33.60
2018-08-27T17:26:05.322Z,33.80
2018-08-27T17:28:35.653Z,34.50
2018-08-27T17:31:06.120Z,34.50
2018-08-27T17:33:36.463Z,35.20
2018-08-27T17:36:07.033Z,35.10
2018-08-27T17:38:43.578Z,35.40
2018-08-27T17:41:53.912Z,36.40
2018-08-27T17:47:47.578Z,38.00
2018-08-27T17:50:20.894Z,39.30
2018-08-27T17:52:51.399Z,40.10
2018-08-27T17:55:29.066Z,41.30
2018-08-27T17:57:59.804Z,41.60
2018-08-27T18:00:30.184Z,42.80
2018-08-27T18:03:00.981Z,43.60
2018-08-27T18:05:31.491Z,43.90
2018-08-27T18:08:02.103Z,44.40
2018-08-27T18:10:32.437Z,44.60
2018-08-27T18:13:02.970Z,45.10
2018-08-27T18:15:33.495Z,45.40
2018-08-27T18:18:03.877Z,45.70
2018-08-27T18:20:34.258Z,46.20
2018-08-27T18:23:04.664Z,46.20
2018-08-27T18:25:35.054Z,46.70
2018-08-27T18:28:05.392Z,46.20
2018-08-27T18:30:35.736Z,46.40
2018-08-27T18:33:06.126Z,46.80
2018-08-27T18:35:36.455Z,47.00
2018-08-27T18:38:06.783Z,47.30
2018-08-27T18:40:37.076Z,47.60
2018-08-27T18:43:07.896Z,47.90
2018-08-27T18:45:38.399Z,48.70
2018-08-27T18:48:09.282Z,49.10
2018-08-27T18:50:39.713Z,49.30
2018-08-27T18:53:10.343Z,49.70
2018-08-27T18:55:40.771Z,50.00
2018-08-27T18:58:11.113Z,50.30
2018-08-27T19:00:42.160Z,50.80
2018-08-27T19:03:12.729Z,51.20
2018-08-27T19:06:10.754Z,51.40
2018-08-27T19:09:08.870Z,51.30
2018-08-27T19:11:39.182Z,51.20
2018-08-27T19:14:10.262Z,51.70
2018-08-27T19:16:40.523Z,51.70
2018-08-27T19:19:11.165Z,51.60
2018-08-27T19:21:41.464Z,51.80
2018-08-27T19:24:11.747Z,52.10
2018-08-27T19:26:42.101Z,52.40
2018-08-27T19:29:12.412Z,52.40
2018-08-27T19:31:42.682Z,52.10
2018-08-27T19:34:12.957Z,51.80
2018-08-27T19:36:43.442Z,53.20
2018-08-27T19:39:13.557Z,52.50
2018-08-27T19:41:43.850Z,52.10
2018-08-27T19:44:14.218Z,52.50
2018-08-27T19:46:44.678Z,52.90
2018-08-27T19:49:15.054Z,52.70
2018-08-27T19:51:45.352Z,51.70
2018-08-27T19:54:15.705Z,51.70
2018-08-27T19:56:46.045Z,51.30
2018-08-27T19:59:16.345Z,51.00
2018-08-27T20:01:47.389Z,50.80
2018-08-27T20:04:17.745Z,50.90
2018-08-27T20:06:48.716Z,50.40
2018-08-27T20:09:20.178Z,49.90
2018-08-27T20:11:50.503Z,50.90
2018-08-27T20:14:21.303Z,51.10
2018-08-27T20:16:51.978Z,51.20
2018-08-27T20:19:22.358Z,51.50
2018-08-27T20:21:53.343Z,51.70
2018-08-27T20:24:24.083Z,51.80
2018-08-27T20:26:54.759Z,52.40
2018-08-27T20:29:25.308Z,52.60
2018-08-27T20:31:56.159Z,52.50
2018-08-27T20:34:26.614Z,52.80
2018-08-27T20:36:57.864Z,52.80
2018-08-27T20:39:28.323Z,52.60
2018-08-27T20:41:59.603Z,52.50
2018-08-27T20:44:29.982Z,52.70
2018-08-27T20:47:00.610Z,53.10
2018-08-27T20:49:31.252Z,53.00
2018-08-27T20:52:01.762Z,52.80
2018-08-27T20:54:32.118Z,52.60
2018-08-27T20:57:02.511Z,53.10
2018-08-27T20:59:33.102Z,53.30
2018-08-27T21:02:03.840Z,53.40
2018-08-27T21:04:34.156Z,53.40
2018-08-27T21:07:04.496Z,53.50
2018-08-27T21:09:34.783Z,53.90
2018-08-27T21:12:05.407Z,54.20
2018-08-27T21:15:16.299Z,54.50
2018-08-27T21:17:50.937Z,54.80
2018-08-27T21:20:25.277Z,54.90
2018-08-27T21:22:56.163Z,55.30
2018-08-27T21:25:26.411Z,55.60
2018-08-27T21:27:57.374Z,56.00
2018-08-27T21:30:27.989Z,56.10
2018-08-27T21:32:58.325Z,56.40
2018-08-27T21:35:28.709Z,56.40
2018-08-27T21:38:00.197Z,56.80
2018-08-27T21:40:30.789Z,57.00
2018-08-27T21:43:01.061Z,57.30
2018-08-27T21:45:31.694Z,57.20
2018-08-27T21:48:01.982Z,57.20
2018-08-27T21:50:32.704Z,57.40
2018-08-27T21:53:03.408Z,57.60
2018-08-27T21:55:37.286Z,57.70
2018-08-27T21:58:08.010Z,57.70
2018-08-27T22:00:43.606Z,57.90
2018-08-27T22:03:19.615Z,57.80
2018-08-27T22:05:50.546Z,57.80
2018-08-27T22:08:20.964Z,57.80
2018-08-27T22:10:54.618Z,57.50
2018-08-27T22:13:25.402Z,57.20
2018-08-27T22:15:56.093Z,57.50
2018-08-27T22:18:27.620Z,57.60
2018-08-27T22:21:01.291Z,57.60
2018-08-27T22:23:32.134Z,58.30
2018-08-27T22:26:07.855Z,58.50
2018-08-27T22:28:45.347Z,58.00
2018-08-27T22:31:16.149Z,57.90
2018-08-27T22:33:46.428Z,58.00
2018-08-27T22:36:19.907Z,58.00
2018-08-27T22:38:53.318Z,58.00
2018-08-27T22:41:33.829Z,58.00
2018-08-27T22:44:04.546Z,58.20
2018-08-27T22:46:34.835Z,58.30
2018-08-27T22:49:05.278Z,58.50
2018-08-27T22:51:36.397Z,58.50
2018-08-27T22:54:07.274Z,58.70
2018-08-27T22:56:37.586Z,58.90
2018-08-27T22:59:08.005Z,59.10
2018-08-27T23:01:38.510Z,59.20
2018-08-27T23:04:14.502Z,59.30
2018-08-27T23:06:44.840Z,59.40
2018-08-27T23:09:15.113Z,59.80
2018-08-27T23:11:51.128Z,59.80
2018-08-27T23:14:24.151Z,60.10
2018-08-27T23:16:55.659Z,60.00
2018-08-27T23:19:27.891Z,59.90
2018-08-27T23:22:03.333Z,59.80
2018-08-27T23:24:36.405Z,59.80
2018-08-27T23:27:10.698Z,59.60
2018-08-27T23:29:48.822Z,59.80
2018-08-27T23:32:22.019Z,59.80
2018-08-27T23:34:55.195Z,59.70
2018-08-27T23:37:29.018Z,59.70
2018-08-27T23:40:02.425Z,59.60
2018-08-27T23:42:35.372Z,59.50
2018-08-27T23:45:06.513Z,59.50
2018-08-27T23:47:39.276Z,59.60
2018-08-27T23:50:16.257Z,59.70
2018-08-27T23:52:52.323Z,59.70
2018-08-27T23:55:26.261Z,59.60
2018-08-27T23:58:01.472Z,59.60
